sensor_id;sensor_type;location;lat;lon;timestamp;P1;durP1;ratioP1;P2;durP2;ratioP2
49217;SDS011;35045;51.194;7.268;2022-07-23T00:00:00;30.27;;;23.30;;
49217;SDS011;35045;51.194;7.268;2022-07-23T00:02:25;29.90;;;21.63;;
49217;SDS011;35045;51.194;7.268;2022-07-23T00:04:50;29.45;;;21.40;;
49217;SDS011;35045;51.194;7.268;2022-07-23T00:07:15;31.73;;;22.13;;
49217;SDS011;35045;51.194;7.268;2022-07-23T00:09:41;32.35;;;22.58;;
49217;SDS011;35045;51.194;7.268;2022-07-23T00:12:06;29.70;;;22.13;;
49217;SDS011;35045;51.194;7.268;2022-07-23T00:14:31;30.63;;;23.38;;
49217;SDS011;35045;51.194;7.268;2022-07-23T00:16:58;31.23;;;22.50;;
49217;SDS011;35045;51.194;7.268;2022-07-23T00:19:23;32.75;;;22.42;;
49217;SDS011;35045;51.194;7.268;2022-07-23T00:21:48;28.50;;;21.05;;
49217;SDS011;35045;51.194;7.268;2022-07-23T00:24:13;29.75;;;20.77;;
49217;SDS011;35045;51.194;7.268;2022-07-23T00:26:38;27.77;;;19.92;;
49217;SDS011;35045;51.194;7.268;2022-07-23T00:29:03;30.77;;;22.65;;
49217;SDS011;35045;51.194;7.268;2022-07-23T00:31:28;28.38;;;20.83;;
49217;SDS011;35045;51.194;7.268;2022-07-23T00:33:53;28.80;;;21.45;;
49217;SDS011;35045;51.194;7.268;2022-07-23T00:36:21;32.38;;;22.95;;
49217;SDS011;35045;51.194;7.268;2022-07-23T00:38:47;31.40;;;22.85;;
49217;SDS011;35045;51.194;7.268;2022-07-23T00:41:12;34.10;;;24.15;;
49217;SDS011;35045;51.194;7.268;2022-07-23T00:43:37;33.25;;;24.35;;
49217;SDS011;35045;51.194;7.268;2022-07-23T00:46:02;29.88;;;21.65;;
49217;SDS011;35045;51.194;7.268;2022-07-23T00:48:27;34.75;;;23.75;;
49217;SDS011;35045;51.194;7.268;2022-07-23T00:50:52;33.25;;;23.15;;
49217;SDS011;35045;51.194;7.268;2022-07-23T00:53:17;33.35;;;23.33;;
49217;SDS011;35045;51.194;7.268;2022-07-23T00:55:44;35.10;;;25.30;;
49217;SDS011;35045;51.194;7.268;2022-07-23T00:58:09;33.97;;;23.63;;
49217;SDS011;35045;51.194;7.268;2022-07-23T01:00:35;31.88;;;23.45;;
49217;SDS011;35045;51.194;7.268;2022-07-23T01:03:00;31.80;;;22.63;;
49217;SDS011;35045;51.194;7.268;2022-07-23T01:05:25;32.53;;;24.55;;
49217;SDS011;35045;51.194;7.268;2022-07-23T01:07:51;34.42;;;23.40;;
49217;SDS011;35045;51.194;7.268;2022-07-23T01:10:17;38.38;;;25.10;;
49217;SDS011;35045;51.194;7.268;2022-07-23T01:13:07;35.42;;;24.27;;
49217;SDS011;35045;51.194;7.268;2022-07-23T01:15:34;35.85;;;22.95;;
49217;SDS011;35045;51.194;7.268;2022-07-23T01:18:01;33.30;;;22.70;;
49217;SDS011;35045;51.194;7.268;2022-07-23T01:20:27;32.50;;;22.15;;
49217;SDS011;35045;51.194;7.268;2022-07-23T01:22:53;30.52;;;22.02;;
49217;SDS011;35045;51.194;7.268;2022-07-23T01:25:18;29.20;;;21.00;;
49217;SDS011;35045;51.194;7.268;2022-07-23T01:27:43;28.42;;;19.23;;
49217;SDS011;35045;51.194;7.268;2022-07-23T01:30:09;27.63;;;18.55;;
49217;SDS011;35045;51.194;7.268;2022-07-23T01:32:34;23.85;;;17.35;;
49217;SDS011;35045;51.194;7.268;2022-07-23T01:34:59;24.02;;;16.30;;
49217;SDS011;35045;51.194;7.268;2022-07-23T01:37:24;25.13;;;17.75;;
49217;SDS011;35045;51.194;7.268;2022-07-23T01:39:49;23.45;;;15.45;;
49217;SDS011;35045;51.194;7.268;2022-07-23T01:42:15;26.25;;;17.88;;
49217;SDS011;35045;51.194;7.268;2022-07-23T01:44:40;22.67;;;16.55;;
49217;SDS011;35045;51.194;7.268;2022-07-23T01:47:05;25.83;;;18.17;;
49217;SDS011;35045;51.194;7.268;2022-07-23T01:49:30;24.13;;;17.23;;
49217;SDS011;35045;51.194;7.268;2022-07-23T01:51:56;24.95;;;17.38;;
49217;SDS011;35045;51.194;7.268;2022-07-23T01:54:24;21.88;;;15.77;;
49217;SDS011;35045;51.194;7.268;2022-07-23T01:56:50;25.63;;;17.15;;
49217;SDS011;35045;51.194;7.268;2022-07-23T01:59:15;22.77;;;16.20;;
49217;SDS011;35045;51.194;7.268;2022-07-23T02:01:40;24.17;;;17.55;;
49217;SDS011;35045;51.194;7.268;2022-07-23T02:04:05;22.50;;;15.95;;
49217;SDS011;35045;51.194;7.268;2022-07-23T02:06:30;23.70;;;17.23;;
49217;SDS011;35045;51.194;7.268;2022-07-23T02:08:55;24.33;;;17.10;;
49217;SDS011;35045;51.194;7.268;2022-07-23T02:11:20;24.73;;;16.58;;
49217;SDS011;35045;51.194;7.268;2022-07-23T02:13:45;24.98;;;17.05;;
49217;SDS011;35045;51.194;7.268;2022-07-23T02:16:10;26.00;;;17.73;;
49217;SDS011;35045;51.194;7.268;2022-07-23T02:18:35;23.98;;;16.98;;
49217;SDS011;35045;51.194;7.268;2022-07-23T02:21:00;23.67;;;17.58;;
49217;SDS011;35045;51.194;7.268;2022-07-23T02:23:25;24.92;;;17.48;;
49217;SDS011;35045;51.194;7.268;2022-07-23T02:25:50;23.00;;;16.50;;
49217;SDS011;35045;51.194;7.268;2022-07-23T02:28:15;24.27;;;16.48;;
49217;SDS011;35045;51.194;7.268;2022-07-23T02:30:40;22.80;;;16.05;;
49217;SDS011;35045;51.194;7.268;2022-07-23T02:33:05;21.63;;;16.08;;
49217;SDS011;35045;51.194;7.268;2022-07-23T02:35:30;24.52;;;17.67;;
49217;SDS011;35045;51.194;7.268;2022-07-23T02:37:55;22.00;;;16.67;;
49217;SDS011;35045;51.194;7.268;2022-07-23T02:40:20;24.40;;;17.42;;
49217;SDS011;35045;51.194;7.268;2022-07-23T02:42:45;22.85;;;15.48;;
49217;SDS011;35045;51.194;7.268;2022-07-23T02:45:10;23.13;;;16.30;;
49217;SDS011;35045;51.194;7.268;2022-07-23T02:47:36;21.30;;;15.75;;
49217;SDS011;35045;51.194;7.268;2022-07-23T02:50:01;24.45;;;16.90;;
49217;SDS011;35045;51.194;7.268;2022-07-23T02:52:28;26.27;;;16.58;;
49217;SDS011;35045;51.194;7.268;2022-07-23T02:54:53;24.98;;;17.25;;
49217;SDS011;35045;51.194;7.268;2022-07-23T02:57:18;22.80;;;16.35;;
49217;SDS011;35045;51.194;7.268;2022-07-23T02:59:43;24.60;;;16.92;;
49217;SDS011;35045;51.194;7.268;2022-07-23T03:02:08;23.90;;;17.67;;
49217;SDS011;35045;51.194;7.268;2022-07-23T03:04:33;24.35;;;17.50;;
49217;SDS011;35045;51.194;7.268;2022-07-23T03:06:58;24.00;;;17.05;;
49217;SDS011;35045;51.194;7.268;2022-07-23T03:09:23;22.98;;;17.10;;
49217;SDS011;35045;51.194;7.268;2022-07-23T03:11:48;24.50;;;16.88;;
49217;SDS011;35045;51.194;7.268;2022-07-23T03:14:13;23.40;;;16.65;;
49217;SDS011;35045;51.194;7.268;2022-07-23T03:16:40;21.80;;;15.50;;
49217;SDS011;35045;51.194;7.268;2022-07-23T03:19:05;23.02;;;16.55;;
49217;SDS011;35045;51.194;7.268;2022-07-23T03:21:30;23.65;;;16.20;;
49217;SDS011;35045;51.194;7.268;2022-07-23T03:23:55;24.77;;;17.35;;
49217;SDS011;35045;51.194;7.268;2022-07-23T03:26:20;23.38;;;16.83;;
49217;SDS011;35045;51.194;7.268;2022-07-23T03:28:49;23.35;;;16.08;;
49217;SDS011;35045;51.194;7.268;2022-07-23T03:31:14;23.70;;;17.67;;
49217;SDS011;35045;51.194;7.268;2022-07-23T03:33:39;23.10;;;16.27;;
49217;SDS011;35045;51.194;7.268;2022-07-23T03:36:05;23.50;;;17.20;;
49217;SDS011;35045;51.194;7.268;2022-07-23T03:38:31;24.73;;;17.38;;
49217;SDS011;35045;51.194;7.268;2022-07-23T03:40:56;23.55;;;16.73;;
49217;SDS011;35045;51.194;7.268;2022-07-23T03:43:21;22.42;;;15.77;;
49217;SDS011;35045;51.194;7.268;2022-07-23T03:45:46;26.80;;;18.67;;
49217;SDS011;35045;51.194;7.268;2022-07-23T03:48:11;22.60;;;16.10;;
49217;SDS011;35045;51.194;7.268;2022-07-23T03:50:36;23.80;;;17.75;;
49217;SDS011;35045;51.194;7.268;2022-07-23T03:55:26;21.38;;;16.45;;
49217;SDS011;35045;51.194;7.268;2022-07-23T03:57:51;23.35;;;16.30;;
49217;SDS011;35045;51.194;7.268;2022-07-23T04:00:16;20.55;;;15.60;;
49217;SDS011;35045;51.194;7.268;2022-07-23T04:02:41;22.73;;;16.08;;
49217;SDS011;35045;51.194;7.268;2022-07-23T04:05:07;24.23;;;16.35;;
49217;SDS011;35045;51.194;7.268;2022-07-23T04:07:32;24.27;;;16.98;;
49217;SDS011;35045;51.194;7.268;2022-07-23T04:09:57;24.15;;;17.15;;
49217;SDS011;35045;51.194;7.268;2022-07-23T04:12:22;23.73;;;17.52;;
49217;SDS011;35045;51.194;7.268;2022-07-23T04:14:48;23.83;;;17.08;;
49217;SDS011;35045;51.194;7.268;2022-07-23T04:17:13;23.73;;;17.48;;
49217;SDS011;35045;51.194;7.268;2022-07-23T04:19:38;24.77;;;17.98;;
49217;SDS011;35045;51.194;7.268;2022-07-23T04:22:08;24.42;;;17.95;;
49217;SDS011;35045;51.194;7.268;2022-07-23T04:24:33;23.85;;;17.25;;
49217;SDS011;35045;51.194;7.268;2022-07-23T04:26:58;23.65;;;15.88;;
49217;SDS011;35045;51.194;7.268;2022-07-23T04:29:23;22.40;;;17.25;;
49217;SDS011;35045;51.194;7.268;2022-07-23T04:31:48;25.40;;;17.80;;
49217;SDS011;35045;51.194;7.268;2022-07-23T04:34:14;22.80;;;17.33;;
49217;SDS011;35045;51.194;7.268;2022-07-23T04:36:39;21.50;;;16.48;;
49217;SDS011;35045;51.194;7.268;2022-07-23T04:39:04;25.80;;;17.60;;
49217;SDS011;35045;51.194;7.268;2022-07-23T04:41:29;22.90;;;16.92;;
49217;SDS011;35045;51.194;7.268;2022-07-23T04:43:54;28.27;;;17.75;;
49217;SDS011;35045;51.194;7.268;2022-07-23T04:46:19;22.83;;;16.40;;
49217;SDS011;35045;51.194;7.268;2022-07-23T04:48:44;23.88;;;18.05;;
49217;SDS011;35045;51.194;7.268;2022-07-23T04:51:09;23.13;;;16.98;;
49217;SDS011;35045;51.194;7.268;2022-07-23T04:53:34;23.00;;;16.42;;
49217;SDS011;35045;51.194;7.268;2022-07-23T04:56:01;23.25;;;16.33;;
49217;SDS011;35045;51.194;7.268;2022-07-23T04:58:26;21.92;;;16.30;;
49217;SDS011;35045;51.194;7.268;2022-07-23T05:00:51;23.90;;;16.40;;
49217;SDS011;35045;51.194;7.268;2022-07-23T05:03:16;21.27;;;15.65;;
49217;SDS011;35045;51.194;7.268;2022-07-23T05:08:06;22.13;;;15.65;;
49217;SDS011;35045;51.194;7.268;2022-07-23T05:10:32;22.02;;;15.93;;
49217;SDS011;35045;51.194;7.268;2022-07-23T05:12:57;23.85;;;17.75;;
49217;SDS011;35045;51.194;7.268;2022-07-23T05:15:23;20.30;;;15.20;;
49217;SDS011;35045;51.194;7.268;2022-07-23T05:17:48;24.52;;;16.73;;
49217;SDS011;35045;51.194;7.268;2022-07-23T05:20:13;20.77;;;14.82;;
49217;SDS011;35045;51.194;7.268;2022-07-23T05:22:38;20.27;;;13.95;;
49217;SDS011;35045;51.194;7.268;2022-07-23T05:25:03;22.58;;;15.85;;
49217;SDS011;35045;51.194;7.268;2022-07-23T05:27:29;21.45;;;14.20;;
49217;SDS011;35045;51.194;7.268;2022-07-23T05:29:54;20.30;;;14.55;;
49217;SDS011;35045;51.194;7.268;2022-07-23T05:32:19;18.70;;;14.23;;
49217;SDS011;35045;51.194;7.268;2022-07-23T05:34:44;17.70;;;13.05;;
49217;SDS011;35045;51.194;7.268;2022-07-23T05:37:09;18.23;;;13.30;;
49217;SDS011;35045;51.194;7.268;2022-07-23T05:39:34;16.65;;;11.95;;
49217;SDS011;35045;51.194;7.268;2022-07-23T05:41:59;18.42;;;12.50;;
49217;SDS011;35045;51.194;7.268;2022-07-23T05:44:24;19.25;;;13.63;;
49217;SDS011;35045;51.194;7.268;2022-07-23T05:46:51;15.35;;;10.82;;
49217;SDS011;35045;51.194;7.268;2022-07-23T05:49:16;14.77;;;10.77;;
49217;SDS011;35045;51.194;7.268;2022-07-23T05:51:41;12.68;;;9.63;;
49217;SDS011;35045;51.194;7.268;2022-07-23T05:54:06;15.18;;;10.40;;
49217;SDS011;35045;51.194;7.268;2022-07-23T05:56:31;14.43;;;9.70;;
49217;SDS011;35045;51.194;7.268;2022-07-23T05:58:56;15.02;;;10.10;;
49217;SDS011;35045;51.194;7.268;2022-07-23T06:01:21;15.30;;;9.95;;
49217;SDS011;35045;51.194;7.268;2022-07-23T06:03:46;14.73;;;10.13;;
49217;SDS011;35045;51.194;7.268;2022-07-23T06:08:37;14.00;;;9.50;;
49217;SDS011;35045;51.194;7.268;2022-07-23T06:11:02;13.75;;;8.85;;
49217;SDS011;35045;51.194;7.268;2022-07-23T06:13:27;13.07;;;9.48;;
49217;SDS011;35045;51.194;7.268;2022-07-23T06:15:52;14.30;;;9.32;;
49217;SDS011;35045;51.194;7.268;2022-07-23T06:18:17;13.55;;;8.80;;
49217;SDS011;35045;51.194;7.268;2022-07-23T06:20:42;13.20;;;8.80;;
49217;SDS011;35045;51.194;7.268;2022-07-23T06:23:08;14.18;;;8.88;;
49217;SDS011;35045;51.194;7.268;2022-07-23T06:25:33;14.98;;;9.43;;
49217;SDS011;35045;51.194;7.268;2022-07-23T06:27:58;13.60;;;9.73;;
49217;SDS011;35045;51.194;7.268;2022-07-23T06:30:24;13.75;;;8.70;;
49217;SDS011;35045;51.194;7.268;2022-07-23T06:32:50;13.23;;;9.07;;
49217;SDS011;35045;51.194;7.268;2022-07-23T06:35:15;13.90;;;9.10;;
49217;SDS011;35045;51.194;7.268;2022-07-23T06:37:41;14.00;;;9.50;;
49217;SDS011;35045;51.194;7.268;2022-07-23T06:40:06;14.77;;;10.35;;
49217;SDS011;35045;51.194;7.268;2022-07-23T06:44:56;16.55;;;10.38;;
49217;SDS011;35045;51.194;7.268;2022-07-23T06:47:21;17.63;;;10.43;;
49217;SDS011;35045;51.194;7.268;2022-07-23T06:49:46;15.38;;;10.73;;
49217;SDS011;35045;51.194;7.268;2022-07-23T06:52:11;18.38;;;10.75;;
49217;SDS011;35045;51.194;7.268;2022-07-23T06:54:36;15.30;;;10.75;;
49217;SDS011;35045;51.194;7.268;2022-07-23T06:57:01;14.55;;;10.30;;
49217;SDS011;35045;51.194;7.268;2022-07-23T06:59:26;14.80;;;10.20;;
49217;SDS011;35045;51.194;7.268;2022-07-23T07:01:51;16.92;;;10.23;;
49217;SDS011;35045;51.194;7.268;2022-07-23T07:04:16;15.80;;;9.18;;
49217;SDS011;35045;51.194;7.268;2022-07-23T07:06:41;15.13;;;9.02;;
49217;SDS011;35045;51.194;7.268;2022-07-23T07:09:06;15.88;;;9.70;;
49217;SDS011;35045;51.194;7.268;2022-07-23T07:11:31;14.30;;;8.50;;
49217;SDS011;35045;51.194;7.268;2022-07-23T07:13:56;12.00;;;7.57;;
49217;SDS011;35045;51.194;7.268;2022-07-23T07:16:21;10.93;;;7.18;;
49217;SDS011;35045;51.194;7.268;2022-07-23T07:18:47;12.38;;;6.70;;
49217;SDS011;35045;51.194;7.268;2022-07-23T07:21:12;12.35;;;8.00;;
49217;SDS011;35045;51.194;7.268;2022-07-23T07:23:37;11.65;;;8.13;;
49217;SDS011;35045;51.194;7.268;2022-07-23T07:26:03;14.77;;;8.63;;
49217;SDS011;35045;51.194;7.268;2022-07-23T07:28:28;14.63;;;9.00;;
49217;SDS011;35045;51.194;7.268;2022-07-23T07:30:54;14.25;;;9.13;;
49217;SDS011;35045;51.194;7.268;2022-07-23T07:33:19;14.48;;;9.10;;
49217;SDS011;35045;51.194;7.268;2022-07-23T07:35:45;17.30;;;9.68;;
49217;SDS011;35045;51.194;7.268;2022-07-23T07:38:10;13.30;;;9.55;;
49217;SDS011;35045;51.194;7.268;2022-07-23T07:40:35;15.00;;;9.07;;
49217;SDS011;35045;51.194;7.268;2022-07-23T07:43:00;14.60;;;9.68;;
49217;SDS011;35045;51.194;7.268;2022-07-23T07:45:27;18.02;;;10.57;;
49217;SDS011;35045;51.194;7.268;2022-07-23T07:47:52;15.88;;;10.27;;
49217;SDS011;35045;51.194;7.268;2022-07-23T07:50:18;15.50;;;10.93;;
49217;SDS011;35045;51.194;7.268;2022-07-23T07:52:44;14.80;;;10.77;;
49217;SDS011;35045;51.194;7.268;2022-07-23T07:55:09;16.17;;;10.27;;
49217;SDS011;35045;51.194;7.268;2022-07-23T07:57:35;20.17;;;12.30;;
49217;SDS011;35045;51.194;7.268;2022-07-23T08:02:25;15.95;;;11.07;;
49217;SDS011;35045;51.194;7.268;2022-07-23T08:04:50;22.63;;;12.25;;
49217;SDS011;35045;51.194;7.268;2022-07-23T08:09:41;15.18;;;11.30;;
49217;SDS011;35045;51.194;7.268;2022-07-23T08:12:07;13.77;;;10.57;;
49217;SDS011;35045;51.194;7.268;2022-07-23T08:16:57;13.98;;;11.02;;
49217;SDS011;35045;51.194;7.268;2022-07-23T08:19:22;17.25;;;12.23;;
49217;SDS011;35045;51.194;7.268;2022-07-23T08:21:47;15.95;;;12.10;;
49217;SDS011;35045;51.194;7.268;2022-07-23T08:24:12;15.55;;;12.05;;
49217;SDS011;35045;51.194;7.268;2022-07-23T08:26:37;16.67;;;12.07;;
49217;SDS011;35045;51.194;7.268;2022-07-23T08:29:02;15.07;;;10.98;;
49217;SDS011;35045;51.194;7.268;2022-07-23T08:31:27;17.20;;;12.80;;
49217;SDS011;35045;51.194;7.268;2022-07-23T08:33:52;15.82;;;12.65;;
49217;SDS011;35045;51.194;7.268;2022-07-23T08:36:18;18.42;;;12.02;;
49217;SDS011;35045;51.194;7.268;2022-07-23T08:38:43;15.48;;;11.77;;
49217;SDS011;35045;51.194;7.268;2022-07-23T08:41:08;15.75;;;11.35;;
49217;SDS011;35045;51.194;7.268;2022-07-23T08:43:34;18.00;;;11.82;;
49217;SDS011;35045;51.194;7.268;2022-07-23T08:46:00;14.50;;;11.23;;
49217;SDS011;35045;51.194;7.268;2022-07-23T08:48:30;16.08;;;11.07;;
49217;SDS011;35045;51.194;7.268;2022-07-23T08:50:57;15.57;;;13.07;;
49217;SDS011;35045;51.194;7.268;2022-07-23T08:53:24;21.65;;;14.13;;
49217;SDS011;35045;51.194;7.268;2022-07-23T08:55:51;18.55;;;13.60;;
49217;SDS011;35045;51.194;7.268;2022-07-23T08:58:17;16.95;;;12.90;;
49217;SDS011;35045;51.194;7.268;2022-07-23T09:00:44;14.93;;;12.10;;
49217;SDS011;35045;51.194;7.268;2022-07-23T09:03:16;15.68;;;11.65;;
49217;SDS011;35045;51.194;7.268;2022-07-23T09:05:43;15.25;;;12.45;;
49217;SDS011;35045;51.194;7.268;2022-07-23T09:15:56;16.27;;;13.27;;
49217;SDS011;35045;51.194;7.268;2022-07-23T09:21:19;15.38;;;13.77;;
49217;SDS011;35045;51.194;7.268;2022-07-23T09:26:26;15.63;;;12.38;;
49217;SDS011;35045;51.194;7.268;2022-07-23T09:29:03;16.58;;;13.63;;
49217;SDS011;35045;51.194;7.268;2022-07-23T09:31:34;16.85;;;13.45;;
49217;SDS011;35045;51.194;7.268;2022-07-23T09:36:52;16.55;;;13.05;;
49217;SDS011;35045;51.194;7.268;2022-07-23T09:39:24;18.05;;;14.52;;
49217;SDS011;35045;51.194;7.268;2022-07-23T09:41:54;16.25;;;14.50;;
49217;SDS011;35045;51.194;7.268;2022-07-23T09:44:20;14.93;;;12.93;;
49217;SDS011;35045;51.194;7.268;2022-07-23T09:46:46;13.77;;;11.95;;
49217;SDS011;35045;51.194;7.268;2022-07-23T09:49:14;16.20;;;13.00;;
49217;SDS011;35045;51.194;7.268;2022-07-23T09:51:59;15.55;;;13.73;;
49217;SDS011;35045;51.194;7.268;2022-07-23T09:56:59;16.00;;;13.40;;
49217;SDS011;35045;51.194;7.268;2022-07-23T09:59:29;16.02;;;12.80;;
49217;SDS011;35045;51.194;7.268;2022-07-23T10:01:56;14.68;;;13.15;;
49217;SDS011;35045;51.194;7.268;2022-07-23T10:04:24;14.20;;;12.13;;
49217;SDS011;35045;51.194;7.268;2022-07-23T10:06:51;16.73;;;12.57;;
49217;SDS011;35045;51.194;7.268;2022-07-23T10:09:18;14.02;;;12.45;;
49217;SDS011;35045;51.194;7.268;2022-07-23T10:11:53;13.23;;;11.50;;
49217;SDS011;35045;51.194;7.268;2022-07-23T10:14:24;13.65;;;11.40;;
49217;SDS011;35045;51.194;7.268;2022-07-23T10:16:50;14.70;;;13.10;;
49217;SDS011;35045;51.194;7.268;2022-07-23T10:19:16;17.73;;;14.35;;
49217;SDS011;35045;51.194;7.268;2022-07-23T10:21:46;15.35;;;12.88;;
49217;SDS011;35045;51.194;7.268;2022-07-23T10:30:00;14.27;;;12.77;;
49217;SDS011;35045;51.194;7.268;2022-07-23T10:36:07;14.32;;;12.18;;
49217;SDS011;35045;51.194;7.268;2022-07-23T10:41:39;15.27;;;12.55;;
49217;SDS011;35045;51.194;7.268;2022-07-23T10:44:15;13.68;;;12.23;;
49217;SDS011;35045;51.194;7.268;2022-07-23T10:46:57;13.48;;;12.10;;
49217;SDS011;35045;51.194;7.268;2022-07-23T10:49:33;14.50;;;12.63;;
49217;SDS011;35045;51.194;7.268;2022-07-23T10:54:42;12.07;;;10.75;;
49217;SDS011;35045;51.194;7.268;2022-07-23T10:57:09;11.75;;;10.55;;
49217;SDS011;35045;51.194;7.268;2022-07-23T11:02:36;13.38;;;11.73;;
49217;SDS011;35045;51.194;7.268;2022-07-23T11:07:31;13.32;;;11.93;;
49217;SDS011;35045;51.194;7.268;2022-07-23T11:09:57;13.02;;;11.73;;
49217;SDS011;35045;51.194;7.268;2022-07-23T11:17:34;13.90;;;11.07;;
49217;SDS011;35045;51.194;7.268;2022-07-23T11:22:46;12.35;;;10.02;;
49217;SDS011;35045;51.194;7.268;2022-07-23T11:25:13;13.10;;;11.60;;
49217;SDS011;35045;51.194;7.268;2022-07-23T11:27:45;12.65;;;9.23;;
49217;SDS011;35045;51.194;7.268;2022-07-23T11:32:51;12.90;;;9.30;;
49217;SDS011;35045;51.194;7.268;2022-07-23T11:35:38;10.32;;;8.20;;
49217;SDS011;35045;51.194;7.268;2022-07-23T11:38:06;9.98;;;8.85;;
49217;SDS011;35045;51.194;7.268;2022-07-23T11:40:37;11.80;;;8.98;;
49217;SDS011;35045;51.194;7.268;2022-07-23T11:45:43;10.90;;;9.50;;
49217;SDS011;35045;51.194;7.268;2022-07-23T11:48:18;10.73;;;9.50;;
49217;SDS011;35045;51.194;7.268;2022-07-23T11:50:47;11.07;;;8.93;;
49217;SDS011;35045;51.194;7.268;2022-07-23T11:53:13;12.23;;;9.85;;
49217;SDS011;35045;51.194;7.268;2022-07-23T11:55:45;11.07;;;9.55;;
49217;SDS011;35045;51.194;7.268;2022-07-23T11:58:10;12.75;;;10.45;;
49217;SDS011;35045;51.194;7.268;2022-07-23T12:00:35;12.38;;;9.57;;
49217;SDS011;35045;51.194;7.268;2022-07-23T12:03:05;10.75;;;7.85;;
49217;SDS011;35045;51.194;7.268;2022-07-23T12:05:32;9.32;;;7.63;;
49217;SDS011;35045;51.194;7.268;2022-07-23T12:08:00;9.30;;;7.32;;
49217;SDS011;35045;51.194;7.268;2022-07-23T12:10:27;10.90;;;7.40;;
49217;SDS011;35045;51.194;7.268;2022-07-23T12:12:55;10.32;;;8.52;;
49217;SDS011;35045;51.194;7.268;2022-07-23T12:15:35;9.68;;;6.88;;
49217;SDS011;35045;51.194;7.268;2022-07-23T12:18:04;8.73;;;7.05;;
49217;SDS011;35045;51.194;7.268;2022-07-23T12:20:31;8.90;;;6.28;;
49217;SDS011;35045;51.194;7.268;2022-07-23T12:23:02;9.43;;;6.30;;
49217;SDS011;35045;51.194;7.268;2022-07-23T12:25:32;8.55;;;6.65;;
49217;SDS011;35045;51.194;7.268;2022-07-23T12:30:31;8.27;;;5.85;;
49217;SDS011;35045;51.194;7.268;2022-07-23T12:32:57;9.73;;;6.45;;
49217;SDS011;35045;51.194;7.268;2022-07-23T12:35:29;8.52;;;5.82;;
49217;SDS011;35045;51.194;7.268;2022-07-23T12:37:59;9.52;;;5.80;;
49217;SDS011;35045;51.194;7.268;2022-07-23T12:40:28;7.45;;;5.28;;
49217;SDS011;35045;51.194;7.268;2022-07-23T12:43:03;10.05;;;5.97;;
49217;SDS011;35045;51.194;7.268;2022-07-23T12:49:00;9.03;;;6.70;;
49217;SDS011;35045;51.194;7.268;2022-07-23T12:51:03;9.18;;;5.95;;
49217;SDS011;35045;51.194;7.268;2022-07-23T12:53:30;10.10;;;6.07;;
49217;SDS011;35045;51.194;7.268;2022-07-23T12:56:18;8.52;;;5.85;;
49217;SDS011;35045;51.194;7.268;2022-07-23T12:58:50;8.15;;;5.60;;
49217;SDS011;35045;51.194;7.268;2022-07-23T13:03:53;7.93;;;6.13;;
49217;SDS011;35045;51.194;7.268;2022-07-23T13:06:23;9.13;;;5.40;;
49217;SDS011;35045;51.194;7.268;2022-07-23T13:08:49;6.70;;;4.43;;
49217;SDS011;35045;51.194;7.268;2022-07-23T13:11:14;9.38;;;4.75;;
49217;SDS011;35045;51.194;7.268;2022-07-23T13:13:39;7.13;;;4.25;;
49217;SDS011;35045;51.194;7.268;2022-07-23T13:16:06;6.68;;;3.95;;
49217;SDS011;35045;51.194;7.268;2022-07-23T13:18:31;6.03;;;3.47;;
49217;SDS011;35045;51.194;7.268;2022-07-23T13:20:56;6.50;;;3.80;;
49217;SDS011;35045;51.194;7.268;2022-07-23T13:23:22;7.30;;;4.25;;
49217;SDS011;35045;51.194;7.268;2022-07-23T13:25:47;6.55;;;3.58;;
49217;SDS011;35045;51.194;7.268;2022-07-23T13:28:13;6.40;;;3.30;;
49217;SDS011;35045;51.194;7.268;2022-07-23T13:30:40;7.22;;;3.63;;
49217;SDS011;35045;51.194;7.268;2022-07-23T13:33:05;7.32;;;3.70;;
49217;SDS011;35045;51.194;7.268;2022-07-23T13:35:31;7.22;;;3.35;;
49217;SDS011;35045;51.194;7.268;2022-07-23T13:37:57;6.68;;;3.58;;
49217;SDS011;35045;51.194;7.268;2022-07-23T13:40:22;6.70;;;3.47;;
49217;SDS011;35045;51.194;7.268;2022-07-23T13:42:47;6.03;;;3.03;;
49217;SDS011;35045;51.194;7.268;2022-07-23T13:45:12;4.97;;;2.70;;
49217;SDS011;35045;51.194;7.268;2022-07-23T13:47:39;7.93;;;4.00;;
49217;SDS011;35045;51.194;7.268;2022-07-23T13:50:04;6.53;;;3.33;;
49217;SDS011;35045;51.194;7.268;2022-07-23T13:52:30;7.03;;;3.70;;
49217;SDS011;35045;51.194;7.268;2022-07-23T13:54:58;6.97;;;2.97;;
49217;SDS011;35045;51.194;7.268;2022-07-23T13:57:23;5.70;;;3.30;;
49217;SDS011;35045;51.194;7.268;2022-07-23T13:59:48;6.20;;;3.00;;
49217;SDS011;35045;51.194;7.268;2022-07-23T14:02:13;5.75;;;3.20;;
49217;SDS011;35045;51.194;7.268;2022-07-23T14:04:41;7.53;;;3.58;;
49217;SDS011;35045;51.194;7.268;2022-07-23T14:07:06;8.20;;;3.45;;
49217;SDS011;35045;51.194;7.268;2022-07-23T14:09:31;5.80;;;3.10;;
49217;SDS011;35045;51.194;7.268;2022-07-23T14:11:58;6.18;;;2.80;;
49217;SDS011;35045;51.194;7.268;2022-07-23T14:14:23;7.20;;;3.65;;
49217;SDS011;35045;51.194;7.268;2022-07-23T14:16:48;6.63;;;2.83;;
49217;SDS011;35045;51.194;7.268;2022-07-23T14:19:13;6.20;;;2.65;;
49217;SDS011;35045;51.194;7.268;2022-07-23T14:21:38;5.60;;;3.00;;
49217;SDS011;35045;51.194;7.268;2022-07-23T14:24:03;9.48;;;2.80;;
49217;SDS011;35045;51.194;7.268;2022-07-23T14:26:28;6.65;;;3.20;;
49217;SDS011;35045;51.194;7.268;2022-07-23T14:28:53;5.93;;;2.65;;
49217;SDS011;35045;51.194;7.268;2022-07-23T14:31:18;7.05;;;3.08;;
49217;SDS011;35045;51.194;7.268;2022-07-23T14:33:43;7.00;;;3.70;;
49217;SDS011;35045;51.194;7.268;2022-07-23T14:36:08;7.22;;;3.90;;
49217;SDS011;35045;51.194;7.268;2022-07-23T14:38:34;7.15;;;3.03;;
49217;SDS011;35045;51.194;7.268;2022-07-23T14:40:59;6.05;;;3.05;;
49217;SDS011;35045;51.194;7.268;2022-07-23T14:43:24;7.65;;;3.20;;
49217;SDS011;35045;51.194;7.268;2022-07-23T14:45:49;5.13;;;2.28;;
49217;SDS011;35045;51.194;7.268;2022-07-23T14:48:14;7.50;;;3.28;;
49217;SDS011;35045;51.194;7.268;2022-07-23T14:50:39;6.03;;;2.70;;
49217;SDS011;35045;51.194;7.268;2022-07-23T14:53:05;6.05;;;2.70;;
49217;SDS011;35045;51.194;7.268;2022-07-23T14:55:31;5.40;;;2.60;;
49217;SDS011;35045;51.194;7.268;2022-07-23T14:57:57;7.40;;;3.22;;
49217;SDS011;35045;51.194;7.268;2022-07-23T15:00:22;5.45;;;2.80;;
49217;SDS011;35045;51.194;7.268;2022-07-23T15:02:47;7.32;;;2.80;;
49217;SDS011;35045;51.194;7.268;2022-07-23T15:05:12;8.90;;;3.05;;
49217;SDS011;35045;51.194;7.268;2022-07-23T15:07:37;5.95;;;2.97;;
49217;SDS011;35045;51.194;7.268;2022-07-23T15:10:02;6.35;;;3.38;;
49217;SDS011;35045;51.194;7.268;2022-07-23T15:12:27;6.95;;;3.30;;
49217;SDS011;35045;51.194;7.268;2022-07-23T15:14:52;6.68;;;3.90;;
49217;SDS011;35045;51.194;7.268;2022-07-23T15:17:17;6.85;;;4.00;;
49217;SDS011;35045;51.194;7.268;2022-07-23T15:19:42;7.50;;;3.83;;
49217;SDS011;35045;51.194;7.268;2022-07-23T15:22:07;6.35;;;3.70;;
49217;SDS011;35045;51.194;7.268;2022-07-23T15:24:32;5.88;;;3.20;;
49217;SDS011;35045;51.194;7.268;2022-07-23T15:26:58;8.00;;;4.10;;
49217;SDS011;35045;51.194;7.268;2022-07-23T15:29:23;8.93;;;3.88;;
49217;SDS011;35045;51.194;7.268;2022-07-23T15:31:48;7.57;;;3.80;;
49217;SDS011;35045;51.194;7.268;2022-07-23T15:34:13;7.45;;;3.70;;
49217;SDS011;35045;51.194;7.268;2022-07-23T15:36:39;7.40;;;3.92;;
49217;SDS011;35045;51.194;7.268;2022-07-23T15:39:04;8.00;;;3.88;;